CYYZ/YYZ METAR and TAF weather

Enter ICAO airport designator
Station Type Date Time Source
CYYZ METAR 2019/09/20 20:00 UTC NOAA

CYYZ 202000Z 14010G19KT 15SM FEW140 SCT220 BKN260 24/16 A3014 RMK AC2CC2CI1 SLP207 DENSITY ALT 1600FT


Station Type Date Time Source
CYYZ Decoded METAR 2019/09/20 20:00 UTC NOAA

Toronto Pearson Int'L. Ont., Canada (CYYZ) 43-40N 079-38W 173M
Sep 20, 2019 - 04:00 PM EDT / 2019.09.20 2000 UTC
Wind: from the SE (140 degrees) at 12 MPH (10 KT) gusting to 22 MPH (19 KT):0
Visibility: 15 mile(s):0
Sky conditions: mostly cloudy
Temperature: 75 F (24 C)
Dew Point: 60 F (16 C)
Relative Humidity: 60%
Pressure (altimeter): 30.14 in. Hg (1020 hPa)
ob: CYYZ 202000Z 14010G19KT 15SM FEW140 SCT220 BKN260 24/16 A3014 RMK AC2CC2CI1 SLP207 DENSITY ALT 1600FT
cycle: 20

Station Type Date Time Source
CYYZ TAF 2019/09/20 18:39 UTC NOAA

TAF TAF CYYZ 201738Z 2018/2124 15008G18KT P6SM FEW050 SCT220
BECMG 2023/2101 10008KT
FM210400 VRB03KT P6SM FEW050 SCT180
FM210900 VRB03KT P6SM FEW050
FM211500 16010KT P6SM FEW025 SCT050
RMK NXT FCST BY 202100Z

Example: see airport list